createdAt,value
2023-04-15T00:00:04.420Z,105.98
2023-04-15T00:01:04.370Z,105.76
2023-04-15T00:02:04.448Z,108.04
2023-04-15T00:03:04.569Z,107.10
2023-04-15T00:04:04.707Z,107.10
2023-04-15T00:05:04.531Z,107.38
2023-04-15T00:06:04.583Z,106.31
2023-04-15T00:07:04.644Z,107.34
2023-04-15T00:08:04.680Z,107.13
2023-04-15T00:09:04.721Z,107.24
2023-04-15T00:10:04.790Z,107.23
2023-04-15T00:11:04.816Z,106.88
2023-04-15T00:12:04.831Z,105.82
2023-04-15T00:13:04.858Z,106.22
2023-04-15T00:14:04.909Z,105.73
2023-04-15T00:15:04.852Z,105.74
2023-04-15T00:16:04.868Z,104.73
2023-04-15T00:17:04.930Z,105.51
2023-04-15T00:18:04.875Z,104.85
2023-04-15T00:19:04.871Z,105.77
2023-04-15T00:20:04.872Z,106.07
2023-04-15T00:21:04.887Z,105.64
2023-04-15T00:22:04.871Z,106.47
2023-04-15T00:23:04.877Z,105.77
2023-04-15T00:24:04.889Z,106.11
2023-04-15T00:25:04.901Z,104.40
2023-04-15T00:26:04.949Z,104.86
2023-04-15T00:27:04.979Z,105.87
2023-04-15T00:28:04.992Z,106.39
2023-04-15T00:29:04.993Z,105.81
2023-04-15T00:30:05.029Z,105.66
2023-04-15T00:31:05.058Z,105.02
2023-04-15T00:32:05.058Z,106.51
2023-04-15T00:33:05.090Z,105.57
2023-04-15T00:34:05.090Z,104.86
2023-04-15T00:35:05.100Z,104.19
2023-04-15T00:36:05.097Z,104.34
2023-04-15T00:37:05.097Z,105.10
2023-04-15T00:38:05.094Z,107.49
2023-04-15T00:39:05.138Z,107.07
2023-04-15T00:40:05.132Z,105.69
2023-04-15T00:41:05.147Z,106.48
2023-04-15T00:42:05.141Z,105.81
2023-04-15T00:43:05.138Z,105.02
2023-04-15T00:44:05.173Z,105.29
2023-04-15T00:45:05.149Z,105.07
2023-04-15T00:46:05.180Z,105.52
2023-04-15T00:47:05.164Z,104.48
2023-04-15T00:48:05.196Z,105.53
2023-04-15T00:49:05.161Z,105.09
2023-04-15T00:50:05.187Z,106.75
2023-04-15T00:51:05.130Z,105.33
2023-04-15T00:52:05.126Z,104.22
2023-04-15T00:53:05.132Z,104.46
2023-04-15T00:54:05.144Z,106.25
2023-04-15T00:55:05.128Z,106.00
2023-04-15T00:56:05.123Z,106.51
2023-04-15T00:57:05.127Z,105.63
2023-04-15T00:58:05.134Z,105.15
2023-04-15T00:59:05.134Z,105.64
2023-04-15T01:00:05.148Z,106.35
2023-04-15T01:01:05.114Z,105.85
2023-04-15T01:02:05.211Z,105.42
2023-04-15T01:03:05.251Z,106.63
2023-04-15T01:04:05.165Z,105.39
2023-04-15T01:05:05.118Z,107.72
2023-04-15T01:06:05.119Z,108.15
2023-04-15T01:07:05.123Z,108.79
2023-04-15T01:08:05.117Z,108.81
2023-04-15T01:09:05.126Z,107.82
2023-04-15T01:10:05.120Z,108.37
2023-04-15T01:11:05.125Z,108.67
2023-04-15T01:12:05.118Z,108.76
2023-04-15T01:13:05.118Z,110.54
2023-04-15T01:14:05.127Z,109.69
2023-04-15T01:15:05.153Z,107.50
2023-04-15T01:16:05.187Z,110.12
2023-04-15T01:17:05.140Z,109.79
2023-04-15T01:18:05.172Z,109.68
2023-04-15T01:19:05.145Z,110.30
2023-04-15T01:20:05.140Z,110.37
2023-04-15T01:21:05.166Z,108.83
2023-04-15T01:22:05.134Z,110.51
2023-04-15T01:23:05.135Z,109.53
2023-04-15T01:24:05.153Z,111.37
2023-04-15T01:25:05.151Z,112.12
2023-04-15T01:26:05.135Z,110.06
2023-04-15T01:27:05.159Z,111.47
2023-04-15T01:28:05.162Z,109.62
2023-04-15T01:29:05.122Z,109.31
2023-04-15T01:30:05.123Z,111.32
2023-04-15T01:31:05.168Z,111.08
2023-04-15T01:32:05.125Z,108.76
2023-04-15T01:33:05.157Z,112.76
2023-04-15T01:34:05.138Z,110.25
2023-04-15T01:35:05.153Z,111.94
2023-04-15T01:36:05.161Z,112.28
2023-04-15T01:37:05.159Z,111.35
2023-04-15T01:38:05.170Z,110.98
2023-04-15T01:39:05.198Z,111.37
2023-04-15T01:40:05.174Z,111.48
2023-04-15T01:41:05.174Z,111.55
2023-04-15T01:42:05.171Z,111.76
2023-04-15T01:43:05.169Z,111.75
2023-04-15T01:44:05.170Z,111.28
2023-04-15T01:45:05.161Z,110.41
2023-04-15T01:46:05.162Z,111.28
2023-04-15T01:47:05.151Z,112.28
2023-04-15T01:48:05.173Z,113.02
2023-04-15T01:49:05.208Z,111.74
2023-04-15T01:50:05.169Z,111.07
2023-04-15T01:51:05.156Z,111.26
2023-04-15T01:52:05.163Z,112.96
2023-04-15T01:53:05.165Z,111.05
2023-04-15T01:54:05.174Z,111.34
2023-04-15T01:55:05.161Z,111.70
2023-04-15T01:56:05.174Z,112.77
2023-04-15T01:57:05.189Z,113.54
2023-04-15T01:58:05.154Z,111.21
2023-04-15T01:59:05.162Z,112.43
2023-04-15T02:00:05.158Z,112.27
2023-04-15T02:02:24.437Z,25.00
2023-04-15T02:03:24.309Z,25.00
2023-04-15T02:04:24.432Z,25.00
2023-04-15T02:05:24.265Z,25.00
2023-04-15T02:06:24.318Z,25.00
2023-04-15T02:07:24.383Z,25.00
2023-04-15T02:08:24.414Z,27.73
2023-04-15T02:09:24.303Z,27.69
2023-04-15T02:10:24.285Z,25.00
2023-04-15T02:11:24.347Z,27.81
2023-04-15T02:12:24.281Z,26.47
2023-04-15T02:13:24.355Z,25.00
2023-04-15T02:14:24.395Z,27.51
2023-04-15T02:15:24.427Z,27.15
2023-04-15T02:16:24.433Z,26.84
2023-04-15T02:17:24.359Z,28.49
2023-04-15T02:18:24.342Z,25.91
2023-04-15T02:19:24.359Z,26.13
2023-04-15T02:20:24.313Z,27.90
2023-04-15T02:21:24.269Z,26.78
2023-04-15T02:22:24.297Z,28.34
2023-04-15T02:23:24.408Z,30.69
2023-04-15T02:24:24.389Z,25.65
2023-04-15T02:25:24.410Z,28.50
2023-04-15T02:26:24.276Z,27.08
2023-04-15T02:27:24.925Z,29.27
2023-04-15T02:28:24.287Z,27.96
2023-04-15T02:29:24.322Z,27.85
2023-04-15T02:30:24.255Z,26.17
2023-04-15T02:31:24.299Z,28.53
2023-04-15T02:32:24.343Z,28.88
2023-04-15T02:33:24.370Z,29.25
2023-04-15T02:34:24.283Z,25.39
2023-04-15T02:35:24.301Z,27.60
2023-04-15T02:36:24.244Z,25.00
2023-04-15T02:37:24.271Z,25.50
2023-04-15T02:38:24.299Z,30.23
2023-04-15T02:39:24.269Z,31.00
2023-04-15T02:40:24.431Z,30.42
2023-04-15T02:41:24.376Z,30.13
2023-04-15T02:42:24.916Z,29.14
2023-04-15T02:43:24.288Z,32.45
2023-04-15T02:44:24.871Z,29.48
2023-04-15T02:45:24.298Z,28.01
2023-04-15T02:46:24.478Z,30.76
2023-04-15T02:47:24.474Z,27.60
2023-04-15T02:48:24.262Z,31.61
2023-04-15T02:49:24.407Z,29.98
2023-04-15T02:50:24.399Z,28.85
2023-04-15T02:51:24.286Z,27.86
2023-04-15T02:52:24.305Z,29.16
2023-04-15T02:53:24.278Z,31.61
2023-04-15T02:54:24.280Z,28.51
2023-04-15T02:55:24.944Z,28.73
2023-04-15T02:56:24.287Z,27.59
2023-04-15T02:57:24.284Z,27.20
2023-04-15T02:58:24.280Z,27.34
2023-04-15T02:59:24.392Z,31.08
2023-04-15T03:00:24.464Z,27.88
2023-04-15T03:01:24.404Z,27.09
2023-04-15T03:02:24.386Z,28.94
2023-04-15T03:03:24.382Z,30.66
2023-04-15T03:04:24.308Z,27.03
2023-04-15T03:05:24.498Z,27.34
2023-04-15T03:06:24.316Z,27.81
2023-04-15T03:07:24.335Z,27.30
2023-04-15T03:08:24.317Z,27.05
2023-04-15T03:09:24.311Z,26.82
2023-04-15T03:10:24.406Z,31.79
2023-04-15T03:11:24.396Z,28.44
2023-04-15T03:12:24.460Z,31.65
2023-04-15T03:13:24.451Z,30.96
2023-04-15T03:14:24.495Z,32.63
2023-04-15T03:15:24.490Z,33.97
2023-04-15T03:16:24.510Z,29.85
2023-04-15T03:17:24.575Z,33.01
2023-04-15T03:18:24.573Z,31.73
2023-04-15T03:19:24.599Z,32.97
2023-04-15T03:20:24.724Z,31.30
2023-04-15T03:21:24.671Z,34.71
2023-04-15T03:22:24.708Z,32.52
2023-04-15T03:23:24.741Z,37.09
2023-04-15T03:24:24.797Z,36.81
2023-04-15T03:25:24.835Z,35.46
2023-04-15T03:26:24.856Z,33.02
2023-04-15T03:27:24.868Z,36.91
2023-04-15T03:28:24.923Z,37.32
2023-04-15T03:29:24.937Z,37.59
2023-04-15T03:30:24.978Z,36.11
2023-04-15T03:31:25.062Z,36.44
2023-04-15T03:32:25.040Z,40.59
2023-04-15T03:33:25.069Z,36.01
2023-04-15T03:34:25.121Z,38.72
2023-04-15T03:35:25.194Z,35.76
2023-04-15T03:36:25.196Z,37.01
2023-04-15T03:37:25.221Z,39.17
2023-04-15T03:38:25.295Z,40.45
2023-04-15T03:39:25.293Z,38.97
2023-04-15T03:40:25.329Z,41.79
2023-04-15T03:41:25.373Z,42.86
2023-04-15T03:42:25.428Z,42.09
2023-04-15T03:43:25.452Z,41.95
2023-04-15T03:44:25.461Z,39.67
2023-04-15T03:45:25.495Z,40.84
2023-04-15T03:46:25.601Z,41.35
2023-04-15T03:47:25.686Z,40.88
2023-04-15T03:48:25.618Z,41.54
2023-04-15T03:49:25.681Z,40.74
2023-04-15T03:50:25.711Z,43.87
2023-04-15T03:51:25.746Z,43.94
2023-04-15T03:52:25.820Z,40.19
2023-04-15T03:53:25.857Z,43.68
2023-04-15T03:54:25.866Z,44.18
2023-04-15T03:55:25.898Z,44.03
2023-04-15T03:56:25.923Z,43.40
2023-04-15T03:57:25.947Z,42.24
2023-04-15T03:58:25.967Z,42.53
2023-04-15T03:59:25.996Z,42.73
2023-04-15T04:00:26.044Z,41.60
2023-04-15T04:01:26.056Z,40.69
2023-04-15T04:02:26.352Z,40.55
2023-04-15T04:03:26.298Z,40.74
2023-04-15T04:04:26.184Z,43.92
2023-04-15T04:05:26.086Z,40.21
2023-04-15T04:06:26.078Z,41.71
2023-04-15T04:07:26.091Z,43.82
2023-04-15T04:08:26.084Z,42.66
2023-04-15T04:09:26.093Z,43.23
2023-04-15T04:10:26.216Z,43.30
2023-04-15T04:11:26.087Z,43.46
2023-04-15T04:12:26.092Z,43.39
2023-04-15T04:13:26.093Z,43.08
2023-04-15T04:14:26.068Z,43.51
2023-04-15T04:15:26.118Z,45.63
2023-04-15T04:16:26.120Z,42.70
2023-04-15T04:17:26.132Z,44.46
2023-04-15T04:18:26.066Z,47.83
2023-04-15T04:19:26.105Z,43.87
2023-04-15T04:20:26.072Z,45.58
2023-04-15T04:21:26.073Z,42.36
2023-04-15T04:22:26.073Z,44.54
2023-04-15T04:23:26.075Z,44.21
2023-04-15T04:24:26.072Z,42.76
2023-04-15T04:25:26.072Z,43.71
2023-04-15T04:26:26.077Z,45.44
2023-04-15T04:27:26.083Z,44.34
2023-04-15T04:28:26.063Z,43.53
2023-04-15T04:29:26.058Z,46.08
2023-04-15T04:30:26.062Z,45.59
2023-04-15T04:31:26.108Z,45.91
2023-04-15T04:32:26.090Z,43.55
2023-04-15T04:33:26.074Z,39.41
2023-04-15T04:34:26.071Z,41.94
2023-04-15T04:35:26.082Z,42.48
2023-04-15T04:36:26.058Z,39.24
2023-04-15T04:37:26.081Z,39.89
2023-04-15T04:38:26.060Z,42.75
2023-04-15T04:39:26.065Z,44.30
2023-04-15T04:40:26.061Z,41.07
2023-04-15T04:41:26.064Z,42.50
2023-04-15T04:42:26.067Z,40.33
2023-04-15T04:43:26.066Z,41.19
2023-04-15T04:44:26.090Z,40.26
2023-04-15T04:45:26.061Z,41.72
2023-04-15T04:46:26.072Z,40.36
2023-04-15T04:47:26.111Z,39.36
2023-04-15T04:48:26.071Z,38.69
2023-04-15T04:49:26.083Z,39.62
2023-04-15T04:50:26.060Z,41.55
2023-04-15T04:51:26.083Z,39.28
2023-04-15T04:52:26.079Z,39.60
2023-04-15T04:53:26.082Z,37.51
2023-04-15T04:54:26.072Z,41.03
2023-04-15T04:55:26.098Z,42.49
2023-04-15T04:56:26.120Z,40.36
2023-04-15T04:57:26.129Z,39.74
2023-04-15T04:58:26.132Z,40.05
2023-04-15T04:59:26.162Z,42.17
2023-04-15T05:00:26.234Z,41.10
2023-04-15T05:01:26.240Z,42.04
2023-04-15T05:02:26.338Z,40.89
2023-04-15T05:03:26.392Z,40.61
2023-04-15T05:04:26.336Z,40.24
2023-04-15T05:05:26.347Z,38.68
2023-04-15T05:06:26.382Z,43.69
2023-04-15T05:07:26.430Z,37.45
2023-04-15T05:08:26.449Z,38.73
2023-04-15T05:09:26.553Z,37.78
2023-04-15T05:10:26.534Z,39.48
2023-04-15T05:11:26.568Z,39.06
2023-04-15T05:12:26.565Z,38.56
2023-04-15T05:13:26.597Z,36.76
2023-04-15T05:14:26.636Z,39.96
2023-04-15T05:15:26.669Z,39.35
2023-04-15T05:16:26.745Z,36.74
2023-04-15T05:17:26.770Z,36.84
2023-04-15T05:18:26.784Z,36.46
2023-04-15T05:19:26.844Z,38.73
2023-04-15T05:20:26.855Z,39.62
2023-04-15T05:21:26.897Z,38.52
2023-04-15T05:22:26.956Z,40.32
2023-04-15T05:23:26.985Z,40.95
2023-04-15T05:24:27.025Z,41.34
2023-04-15T05:25:27.084Z,40.81
2023-04-15T05:26:27.109Z,39.93
2023-04-15T05:27:27.144Z,39.11
2023-04-15T05:28:27.169Z,38.50
2023-04-15T05:29:27.177Z,36.92
2023-04-15T05:30:27.210Z,40.54
2023-04-15T05:31:27.342Z,40.51
2023-04-15T05:32:27.266Z,37.05
2023-04-15T05:33:27.279Z,41.59
2023-04-15T05:34:27.342Z,37.67
2023-04-15T05:35:27.374Z,38.11
2023-04-15T05:36:27.406Z,42.03
2023-04-15T05:37:27.473Z,41.65
2023-04-15T05:38:27.476Z,41.81
2023-04-15T05:39:27.518Z,39.06
2023-04-15T05:40:27.555Z,36.44
2023-04-15T05:41:27.608Z,38.30
2023-04-15T05:42:27.625Z,41.09
2023-04-15T05:43:27.636Z,35.80
2023-04-15T05:44:27.674Z,37.49
2023-04-15T05:45:27.711Z,38.09
2023-04-15T05:46:27.793Z,40.47
2023-04-15T05:48:46.852Z,25.00
2023-04-15T05:49:46.873Z,25.00
2023-04-15T05:50:46.826Z,25.00
2023-04-15T05:51:46.820Z,25.00
2023-04-15T05:52:46.839Z,25.00
2023-04-15T05:53:46.780Z,25.00
2023-04-15T05:54:46.763Z,25.65
2023-04-15T05:55:46.761Z,27.97
2023-04-15T05:56:46.730Z,27.09
2023-04-15T05:57:46.729Z,27.32
2023-04-15T05:58:46.705Z,27.30
2023-04-15T05:59:46.699Z,23.86
2023-04-15T06:00:46.669Z,25.52
2023-04-15T06:01:46.727Z,24.05
2023-04-15T06:02:46.792Z,27.22
2023-04-15T06:03:46.696Z,27.15
2023-04-15T06:04:46.644Z,26.23
2023-04-15T06:05:46.603Z,24.87
2023-04-15T06:06:46.574Z,23.48
2023-04-15T06:07:48.473Z,28.52
2023-04-15T06:08:46.551Z,26.68
2023-04-15T06:09:46.548Z,26.84
2023-04-15T06:10:46.526Z,27.04
2023-04-15T06:11:46.513Z,27.49
2023-04-15T06:12:46.512Z,28.48
2023-04-15T06:13:46.489Z,27.57
2023-04-15T06:14:46.477Z,25.99
2023-04-15T06:15:46.469Z,25.92
2023-04-15T06:16:46.469Z,27.49
2023-04-15T06:17:46.562Z,25.65
2023-04-15T06:18:46.465Z,29.24
2023-04-15T06:19:46.464Z,27.71
2023-04-15T06:20:46.451Z,25.64
2023-04-15T06:21:46.533Z,29.32
2023-04-15T06:22:46.435Z,28.68
2023-04-15T06:23:46.423Z,27.65
2023-04-15T06:24:46.407Z,30.89
2023-04-15T06:25:46.394Z,27.93
2023-04-15T06:26:46.377Z,30.57
2023-04-15T06:27:46.369Z,28.48
2023-04-15T06:28:46.371Z,26.45
2023-04-15T06:29:46.336Z,27.67
2023-04-15T06:30:46.334Z,27.59
2023-04-15T06:31:46.319Z,30.91
2023-04-15T06:32:46.336Z,26.10
2023-04-15T06:33:46.281Z,27.55
2023-04-15T06:34:46.276Z,29.26
2023-04-15T06:35:46.268Z,25.00
2023-04-15T06:36:46.252Z,29.55
2023-04-15T06:37:46.231Z,29.64
2023-04-15T06:38:46.246Z,27.71
2023-04-15T06:39:46.205Z,28.41
2023-04-15T06:40:46.180Z,29.39
2023-04-15T06:41:46.168Z,25.53
2023-04-15T06:42:46.145Z,25.00
2023-04-15T06:43:46.120Z,25.68
2023-04-15T06:44:46.105Z,27.83
2023-04-15T06:45:46.136Z,29.05
2023-04-15T06:46:46.083Z,28.91
2023-04-15T06:47:46.121Z,25.51
2023-04-15T06:48:46.041Z,27.37
2023-04-15T06:49:46.003Z,28.36
2023-04-15T06:50:45.982Z,28.45
2023-04-15T06:51:45.957Z,27.32
2023-04-15T06:52:45.925Z,29.10
2023-04-15T06:53:45.894Z,25.61
2023-04-15T06:54:45.893Z,26.25
2023-04-15T06:55:45.859Z,28.95
2023-04-15T06:56:45.860Z,26.34
2023-04-15T06:57:45.830Z,26.16
2023-04-15T06:58:45.824Z,27.88
2023-04-15T06:59:45.814Z,27.09
2023-04-15T07:00:45.813Z,28.55
2023-04-15T07:01:45.847Z,26.42
2023-04-15T07:02:45.812Z,30.17
2023-04-15T07:03:45.743Z,27.41
2023-04-15T07:04:45.717Z,27.14
2023-04-15T07:05:45.709Z,25.99
2023-04-15T07:06:45.697Z,27.88
2023-04-15T07:07:45.676Z,25.65
2023-04-15T07:08:45.649Z,27.28
2023-04-15T07:09:45.643Z,25.00
2023-04-15T07:10:45.665Z,27.22
2023-04-15T07:11:45.737Z,26.07
2023-04-15T07:12:45.743Z,25.91
2023-04-15T07:13:45.749Z,25.24
2023-04-15T07:14:45.795Z,28.85
2023-04-15T07:15:45.777Z,27.97
2023-04-15T07:16:45.842Z,27.41
2023-04-15T07:17:45.862Z,30.88
2023-04-15T07:18:45.883Z,27.97
2023-04-15T07:19:45.833Z,28.05
2023-04-15T07:20:45.851Z,27.99
2023-04-15T07:21:45.804Z,20.97
2023-04-15T07:22:45.805Z,23.38
2023-04-15T07:23:45.781Z,23.02
2023-04-15T07:24:45.762Z,26.71
2023-04-15T07:25:45.737Z,24.39
2023-04-15T07:26:45.755Z,27.27
2023-04-15T07:27:45.719Z,25.88
2023-04-15T07:28:45.774Z,29.96
2023-04-15T07:29:45.811Z,29.27
2023-04-15T07:31:45.916Z,30.98
2023-04-15T07:32:46.005Z,27.55
2023-04-15T07:33:45.984Z,35.44
2023-04-15T07:34:45.996Z,36.29
2023-04-15T07:35:46.025Z,33.39
2023-04-15T07:36:46.095Z,33.70
2023-04-15T07:37:46.088Z,35.91
2023-04-15T07:38:46.117Z,38.71
2023-04-15T07:39:46.179Z,40.30
2023-04-15T07:40:46.174Z,32.15
2023-04-15T07:41:46.177Z,33.39
2023-04-15T07:42:46.211Z,37.18
2023-04-15T07:43:46.248Z,39.87
2023-04-15T07:44:46.280Z,28.49
2023-04-15T07:45:46.361Z,35.55
2023-04-15T07:46:46.356Z,30.29
2023-04-15T07:47:46.403Z,37.03
2023-04-15T07:48:46.415Z,26.76
2023-04-15T07:49:46.448Z,26.86
2023-04-15T07:50:46.495Z,28.49
2023-04-15T07:51:46.533Z,38.30
2023-04-15T07:52:46.586Z,37.68
2023-04-15T07:53:46.609Z,24.19
2023-04-15T07:54:46.644Z,30.61
2023-04-15T07:55:46.696Z,40.30
2023-04-15T07:56:46.725Z,36.15
2023-04-15T07:57:46.757Z,39.90
2023-04-15T07:58:46.824Z,34.20
2023-04-15T07:59:46.785Z,34.46
2023-04-15T08:00:46.777Z,31.74
2023-04-15T08:01:46.808Z,36.05
2023-04-15T08:02:46.858Z,34.84
2023-04-15T08:03:46.834Z,31.29
2023-04-15T08:04:46.822Z,29.00
2023-04-15T08:05:46.664Z,35.19
2023-04-15T08:06:46.686Z,34.31
2023-04-15T08:07:46.628Z,33.01
2023-04-15T08:08:46.617Z,36.53
2023-04-15T08:09:46.597Z,31.53
2023-04-15T08:10:46.569Z,28.43
2023-04-15T08:11:46.598Z,38.02
2023-04-15T08:12:46.691Z,25.00
2023-04-15T08:13:46.667Z,38.58
2023-04-15T08:14:46.703Z,31.53
2023-04-15T08:15:46.793Z,33.32
2023-04-15T08:16:46.780Z,34.77
2023-04-15T08:17:46.892Z,39.89
2023-04-15T08:18:46.830Z,36.12
2023-04-15T08:19:46.850Z,38.47
2023-04-15T08:20:46.882Z,38.75
2023-04-15T08:21:46.943Z,27.66
2023-04-15T08:22:46.961Z,26.21
2023-04-15T08:23:46.958Z,39.70
2023-04-15T08:24:46.958Z,26.49
2023-04-15T08:25:47.000Z,23.92
2023-04-15T08:26:46.972Z,26.86
2023-04-15T08:27:46.905Z,16.06
2023-04-15T08:28:46.894Z,13.12
2023-04-15T08:29:46.878Z,7.42
2023-04-15T08:30:46.865Z,12.44
2023-04-15T08:31:46.914Z,21.65
2023-04-15T08:32:46.957Z,25.00
2023-04-15T08:33:46.815Z,21.86
2023-04-15T08:34:46.789Z,39.39
2023-04-15T08:35:46.759Z,46.27
2023-04-15T08:36:46.745Z,52.08
2023-04-15T08:37:46.723Z,36.34
2023-04-15T08:38:46.693Z,46.03
2023-04-15T08:39:46.684Z,42.93
2023-04-15T08:40:46.651Z,41.44
2023-04-15T08:41:46.654Z,28.58
2023-04-15T08:42:46.622Z,30.91
2023-04-15T08:43:46.578Z,28.75
2023-04-15T08:44:46.613Z,25.65
2023-04-15T08:45:46.561Z,35.13
2023-04-15T08:46:46.631Z,33.74
2023-04-15T08:47:46.627Z,30.58
2023-04-15T08:48:46.606Z,32.22
2023-04-15T08:49:46.590Z,31.41
2023-04-15T08:50:46.615Z,22.84
2023-04-15T08:51:46.599Z,29.29
2023-04-15T08:52:46.635Z,29.01
2023-04-15T08:53:46.667Z,25.00
2023-04-15T08:54:46.617Z,33.62
2023-04-15T08:55:46.619Z,32.69
2023-04-15T08:56:46.675Z,25.00
2023-04-15T08:57:46.629Z,27.79
2023-04-15T08:58:46.643Z,25.55
2023-04-15T08:59:46.633Z,26.09
2023-04-15T09:00:46.695Z,25.79
2023-04-15T09:01:46.699Z,25.79
2023-04-15T09:02:46.826Z,25.88
2023-04-15T09:03:46.667Z,27.80
2023-04-15T09:04:46.529Z,29.41
2023-04-15T09:05:46.497Z,28.28
2023-04-15T09:06:46.481Z,31.48
2023-04-15T09:07:46.523Z,31.52
2023-04-15T09:08:46.437Z,33.11
2023-04-15T09:09:46.407Z,34.54
2023-04-15T09:10:46.393Z,31.57
2023-04-15T09:11:46.361Z,31.71
2023-04-15T09:12:46.327Z,32.32
2023-04-15T09:13:46.308Z,32.07
2023-04-15T09:14:46.318Z,31.88
2023-04-15T09:15:46.292Z,34.81
2023-04-15T09:16:47.330Z,38.39
2023-04-15T09:17:46.262Z,31.53
2023-04-15T09:18:46.203Z,36.19
2023-04-15T09:19:46.175Z,34.38
2023-04-15T09:20:46.147Z,35.90
2023-04-15T09:21:46.137Z,30.67
2023-04-15T09:22:46.136Z,32.56
2023-04-15T09:23:46.112Z,25.51
2023-04-15T09:24:46.108Z,31.54
2023-04-15T09:25:46.107Z,31.49
2023-04-15T09:26:46.087Z,34.31
2023-04-15T09:27:46.062Z,31.07
2023-04-15T09:28:46.060Z,31.00
2023-04-15T09:29:46.037Z,28.77
2023-04-15T09:30:46.148Z,28.11
2023-04-15T09:31:46.073Z,25.06
2023-04-15T09:32:46.138Z,26.32
2023-04-15T09:33:45.992Z,25.00
2023-04-15T09:34:46.034Z,28.75
2023-04-15T09:35:45.956Z,29.47
2023-04-15T09:36:45.958Z,26.74
2023-04-15T09:37:45.930Z,26.24
2023-04-15T09:38:45.899Z,27.15
2023-04-15T09:39:45.896Z,31.68
2023-04-15T09:40:45.870Z,28.16
2023-04-15T09:41:45.868Z,30.51
2023-04-15T09:42:45.822Z,27.98
2023-04-15T09:43:45.817Z,25.97
2023-04-15T09:44:45.805Z,27.85
2023-04-15T09:45:45.798Z,26.76
2023-04-15T09:46:45.771Z,25.96
2023-04-15T09:47:45.778Z,25.66
2023-04-15T09:48:45.744Z,26.82
2023-04-15T09:49:45.724Z,26.71
2023-04-15T09:50:45.701Z,25.00
2023-04-15T09:51:57.545Z,26.98
2023-04-15T09:52:46.664Z,26.18
2023-04-15T09:53:45.652Z,21.67
2023-04-15T09:54:45.579Z,16.05
2023-04-15T09:55:45.549Z,15.31
2023-04-15T09:56:45.516Z,10.80
2023-04-15T09:57:45.486Z,9.64
2023-04-15T09:58:45.464Z,3.98
2023-04-15T09:59:45.435Z,4.48
2023-04-15T10:00:45.406Z,5.67
2023-04-15T10:01:45.431Z,9.93
2023-04-15T10:02:45.425Z,14.37
2023-04-15T10:03:45.407Z,13.93
2023-04-15T10:04:45.293Z,14.74
2023-04-15T10:05:45.249Z,13.83
2023-04-15T10:06:45.236Z,10.32
2023-04-15T10:07:45.194Z,14.66
2023-04-15T10:08:45.170Z,14.83
2023-04-15T10:09:45.142Z,28.66
2023-04-15T10:10:45.102Z,27.07
2023-04-15T10:11:45.070Z,29.29
2023-04-15T10:12:45.072Z,29.52
2023-04-15T10:13:45.110Z,31.34
2023-04-15T10:14:45.138Z,27.66
2023-04-15T10:15:45.222Z,28.56
2023-04-15T10:16:45.298Z,27.05
2023-04-15T10:17:45.302Z,23.02
2023-04-15T10:18:45.297Z,26.70
2023-04-15T10:19:45.304Z,30.08
2023-04-15T10:20:45.392Z,33.67
2023-04-15T10:21:45.368Z,43.39
2023-04-15T10:22:45.385Z,33.04
2023-04-15T10:23:45.429Z,25.77
2023-04-15T10:24:45.454Z,30.36
2023-04-15T10:25:45.455Z,27.59
2023-04-15T10:26:45.490Z,26.06
2023-04-15T10:27:45.519Z,30.87
2023-04-15T10:28:45.551Z,31.42
2023-04-15T10:29:45.592Z,34.21
2023-04-15T10:30:45.622Z,32.22
2023-04-15T10:31:45.720Z,30.13
2023-04-15T10:32:45.731Z,29.00
2023-04-15T10:33:45.718Z,25.00
2023-04-15T10:34:45.756Z,28.99
2023-04-15T10:35:45.783Z,25.11
2023-04-15T10:36:45.774Z,25.26
2023-04-15T10:37:45.720Z,25.75
2023-04-15T10:38:45.705Z,25.16
2023-04-15T10:39:45.657Z,27.14
2023-04-15T10:40:45.625Z,25.27
2023-04-15T10:41:45.592Z,26.45
2023-04-15T10:42:45.560Z,25.56
2023-04-15T10:43:45.532Z,28.08
2023-04-15T10:44:45.551Z,32.94
2023-04-15T10:45:45.570Z,32.85
2023-04-15T10:46:45.649Z,36.39
2023-04-15T10:47:45.629Z,34.63
2023-04-15T10:48:45.649Z,30.58
2023-04-15T10:49:45.692Z,35.24
2023-04-15T10:50:45.710Z,33.24
2023-04-15T10:51:45.731Z,27.24
2023-04-15T10:52:45.753Z,33.13
2023-04-15T10:53:45.793Z,37.21
2023-04-15T10:54:45.830Z,43.86
2023-04-15T10:55:45.833Z,44.87
2023-04-15T10:56:45.868Z,37.65
2023-04-15T10:57:45.897Z,33.95
2023-04-15T10:58:45.923Z,27.46
2023-04-15T10:59:45.969Z,29.53
2023-04-15T11:00:45.968Z,25.74
2023-04-15T11:01:46.049Z,26.84
2023-04-15T11:02:46.123Z,34.61
2023-04-15T11:03:46.154Z,26.99
2023-04-15T11:04:46.176Z,36.08
2023-04-15T11:05:46.101Z,35.04
2023-04-15T11:06:46.156Z,39.21
2023-04-15T11:07:46.178Z,33.23
2023-04-15T11:08:46.218Z,26.49
2023-04-15T11:09:46.272Z,25.38
2023-04-15T11:10:46.267Z,31.30
2023-04-15T11:11:46.494Z,30.21
2023-04-15T11:12:46.320Z,31.53
2023-04-15T11:13:46.358Z,26.96
2023-04-15T11:14:46.405Z,31.40
2023-04-15T11:15:46.453Z,27.69
2023-04-15T11:16:46.506Z,29.84
2023-04-15T11:17:46.636Z,34.34
2023-04-15T11:18:46.525Z,31.09
2023-04-15T11:19:46.549Z,33.95
2023-04-15T11:20:46.524Z,34.00
2023-04-15T11:21:46.510Z,33.72
2023-04-15T11:22:46.482Z,34.06
2023-04-15T11:23:46.457Z,34.58
2023-04-15T11:24:46.452Z,38.18
2023-04-15T11:25:46.419Z,43.68
2023-04-15T11:26:46.362Z,46.15
2023-04-15T11:27:46.345Z,45.38
2023-04-15T11:28:46.344Z,43.55
2023-04-15T11:29:46.316Z,34.84
2023-04-15T11:30:46.297Z,35.06
2023-04-15T11:31:46.294Z,35.78
2023-04-15T11:32:46.237Z,38.05
2023-04-15T11:33:46.226Z,38.49
2023-04-15T11:34:46.162Z,38.88
2023-04-15T11:35:46.151Z,36.07
2023-04-15T11:36:46.126Z,34.79
2023-04-15T11:37:46.098Z,27.87
2023-04-15T11:38:46.118Z,30.68
2023-04-15T11:39:46.121Z,27.77
2023-04-15T11:40:47.261Z,32.85
2023-04-15T11:41:46.154Z,34.55
2023-04-15T11:42:50.012Z,33.94
2023-04-15T11:43:46.156Z,34.09
2023-04-15T11:44:46.142Z,34.48
2023-04-15T11:45:46.183Z,34.13
2023-04-15T11:46:46.082Z,32.28
2023-04-15T11:47:46.074Z,36.49
2023-04-15T11:48:46.017Z,26.60
2023-04-15T11:49:45.990Z,29.75
2023-04-15T11:50:45.960Z,32.45
2023-04-15T11:51:45.919Z,27.20
2023-04-15T11:52:45.919Z,27.39
2023-04-15T11:53:45.897Z,27.56
2023-04-15T11:54:45.852Z,28.25
2023-04-15T11:55:45.807Z,27.70
2023-04-15T11:56:45.838Z,31.29
2023-04-15T11:57:45.742Z,32.06
2023-04-15T11:58:45.800Z,31.64
2023-04-15T11:59:46.160Z,31.87
2023-04-15T12:00:45.658Z,32.47
2023-04-15T12:01:45.718Z,32.27
2023-04-15T12:02:45.703Z,32.08
2023-04-15T12:03:45.776Z,30.92
2023-04-15T12:04:45.618Z,28.50
2023-04-15T12:05:45.534Z,30.47
2023-04-15T12:06:45.496Z,30.64
2023-04-15T12:07:45.468Z,30.48
2023-04-15T12:08:45.515Z,30.91
2023-04-15T12:09:45.459Z,33.52
2023-04-15T12:10:45.397Z,38.29
2023-04-15T12:11:45.372Z,35.36
2023-04-15T12:12:45.356Z,29.12
2023-04-15T12:13:45.290Z,28.05
2023-04-15T12:14:45.310Z,26.25
2023-04-15T12:15:45.444Z,28.63
2023-04-15T12:16:48.867Z,29.03
2023-04-15T12:17:51.434Z,29.13
2023-04-15T12:18:46.338Z,28.95
2023-04-15T12:19:45.326Z,29.05
2023-04-15T12:20:45.287Z,30.53
2023-04-15T12:21:45.249Z,31.63
2023-04-15T12:22:45.224Z,32.93
2023-04-15T12:23:45.199Z,38.86
2023-04-15T12:24:45.180Z,37.60
2023-04-15T12:25:45.165Z,35.36
2023-04-15T12:26:45.176Z,34.55
2023-04-15T12:27:45.199Z,30.09
2023-04-15T12:28:45.259Z,32.59
2023-04-15T12:29:45.334Z,35.71
2023-04-15T12:30:45.314Z,34.20
2023-04-15T12:31:45.360Z,34.38
2023-04-15T12:32:45.279Z,34.84
2023-04-15T12:33:45.240Z,35.04
2023-04-15T12:34:45.229Z,37.31
2023-04-15T12:35:45.177Z,33.58
2023-04-15T12:36:45.154Z,36.50
2023-04-15T12:37:45.130Z,37.13
2023-04-15T12:38:45.136Z,35.49
2023-04-15T12:39:45.096Z,33.61
2023-04-15T12:40:45.111Z,29.90
2023-04-15T12:41:45.130Z,33.97
2023-04-15T12:42:45.102Z,33.99
2023-04-15T12:43:45.067Z,34.11
2023-04-15T12:44:45.052Z,32.61
2023-04-15T12:45:45.023Z,29.37
2023-04-15T12:46:45.020Z,34.11
2023-04-15T12:47:44.987Z,30.61
2023-04-15T12:48:44.917Z,27.64
2023-04-15T12:49:44.905Z,28.95
2023-04-15T12:50:44.862Z,32.10
2023-04-15T12:51:44.844Z,31.48